Date,TemperatureHighF,TemperatureAvgF,TemperatureLowF,DewpointHighF,DewpointAvgF,DewpointLowF,HumidityHigh,HumidityAvg,HumidityLow,PressureMaxIn,PressureMinIn,WindSpeedMaxMPH,WindSpeedAvgMPH,GustSpeedMaxMPH,PrecipitationSumIn
2013-1-1,39.6,33.0,21.7,27.3,21.5,8.8,70,62,56,30.08,29.88,6,2,6,0.00
2013-1-2,29.5,22.6,14.5,16.9,12.0,6.1,71,63,57,30.24,30.06,3,0,3,0.00
2013-1-3,29.5,21.7,11.8,15.6,9.7,0.2,67,60,54,30.26,30.14,4,0,4,0.00
2013-1-4,38.5,30.8,22.8,27.2,20.8,14.3,75,66,58,30.15,29.99,5,1,5,0.01
2013-1-5,41.7,33.4,27.1,27.2,22.0,19.1,73,63,53,30.36,30.04,6,1,6,0.00
2013-1-6,44.2,34.7,27.9,32.4,26.2,20.3,76,71,61,30.32,30.05,3,0,3,0.00
2013-1-7,39.2,31.3,24.4,28.2,22.3,17.0,82,70,52,30.52,30.11,5,1,5,0.00
2013-1-8,47.1,32.8,20.5,33.6,24.1,14.6,83,71,55,30.50,30.42,6,1,6,0.01
2013-1-9,44.1,35.2,24.3,35.2,28.5,19.6,82,77,67,30.50,30.21,5,1,5,0.00
2013-1-10,44.2,39.2,30.4,34.6,25.8,21.9,75,59,47,30.67,30.24,8,2,8,0.12
2013-1-11,39.9,34.3,26.6,35.2,27.8,20.5,85,77,67,30.66,30.26,0,0,0,0.00
2013-1-12,47.5,43.2,39.0,43.2,39.3,34.9,88,86,84,30.30,30.22,1,0,1,0.00
2013-1-13,51.3,46.0,42.1,47.2,42.6,39.2,91,88,83,30.27,30.12,4,0,4,0.00
2013-1-14,55.6,47.1,36.9,51.1,40.5,27.0,92,79,61,30.41,29.99,6,1,6,0.00
2013-1-15,38.8,35.9,32.4,29.2,27.2,25.6,77,70,63,30.45,30.33,5,0,5,0.04
2013-1-16,36.0,34.0,32.4,32.3,29.1,25.4,87,82,66,30.34,29.95,2,0,2,0.01
2013-1-17,44.2,36.0,28.8,34.6,28.5,17.4,87,75,62,30.22,29.98,3,1,3,0.13
2013-1-18,28.6,24.3,19.8,16.8,9.6,4.7,61,53,44,30.57,30.15,5,1,5,0.00
2013-1-19,45.5,34.5,22.5,32.8,22.9,10.7,71,62,56,30.49,30.03,7,2,7,0.10
2013-1-20,51.6,39.7,28.4,33.7,24.9,11.6,75,57,37,30.09,29.74,7,3,7,0.05
2013-1-21,34.2,27.8,22.3,20.0,14.4,8.1,74,57,45,30.20,29.91,4,0,4,0.00
2013-1-22,25.9,19.5,12.7,18.7,6.0,-3.3,77,56,41,30.23,29.89,6,1,6,0.00
2013-1-23,17.8,12.8,8.6,0.2,-2.9,-5.0,57,49,41,30.29,30.22,5,1,5,0.00
2013-1-24,20.5,12.8,4.5,0.1,-2.9,-5.9,62,50,37,30.42,30.22,9,2,9,0.00
2013-1-25,26.6,18.8,12.0,9.6,3.4,-1.6,62,51,41,30.48,30.16,3,0,3,0.00
2013-1-26,19.8,16.7,12.9,9.9,5.8,1.8,70,62,47,30.36,30.13,4,0,4,0.00
2013-1-27,28.4,23.2,16.9,8.5,6.2,1.8,64,49,37,30.57,30.36,2,1,2,0.00
2013-1-28,35.4,32.6,22.6,29.4,23.5,5.4,79,69,37,30.57,30.07,4,0,4,0.00
2013-1-29,41.2,36.3,31.8,33.9,30.5,26.7,84,79,75,30.30,30.07,1,0,1,0.11
2013-1-30,55.2,46.9,36.7,52.9,43.8,32.3,92,89,84,30.23,29.55,9,2,9,0.08
2013-1-31,58.6,45.8,30.6,56.6,34.9,15.4,93,67,42,29.74,29.10,20,5,20,0.90
2013-2-1,32.0,27.1,21.9,17.3,12.9,8.6,68,55,45,30.22,29.74,8,2,8,0.00
2013-2-2,32.5,25.4,17.2,15.7,11.3,8.0,68,55,43,30.37,30.14,6,1,6,0.00
2013-2-3,32.7,25.7,19.4,20.3,16.2,13.0,78,67,56,30.14,29.82,2,0,2,0.00
2013-2-4,31.8,25.8,22.5,16.9,12.9,8.1,74,59,43,30.03,29.83,5,1,5,0.00
2013-2-5,32.4,28.5,25.3,21.5,17.8,9.6,75,64,50,30.09,29.99,2,0,2,0.00
2013-2-6,39.7,32.7,25.7,27.3,21.2,6.3,78,63,41,30.44,29.99,6,1,6,0.01
2013-2-7,34.7,26.5,19.8,13.9,8.6,3.8,55,47,41,30.61,30.43,2,0,2,0.00
2013-2-8,30.7,28.8,26.8,27.3,21.8,12.8,88,76,54,30.50,29.67,8,1,9,0.00
2013-2-9,27.7,27.7,27.7,24.6,24.6,24.6,88,88,88,29.67,29.67,5,5,5,0.00
2013-2-10,27.7,27.7,27.7,24.6,24.6,24.6,88,88,88,29.67,29.67,5,5,5,0.00
2013-2-11,40.6,34.0,27.7,39.6,32.3,24.6,96,93,88,30.24,29.67,5,2,5,0.01
2013-2-12,44.2,38.5,35.1,40.5,34.2,27.3,96,85,71,30.04,29.77,9,2,9,0.08
2013-2-13,44.1,35.8,27.1,31.6,26.9,22.1,82,70,57,30.03,29.79,2,0,2,0.00
2013-2-14,44.6,35.7,27.9,31.4,27.4,23.7,86,72,56,30.10,29.81,4,0,4,0.01
2013-2-15,49.8,39.4,29.7,38.5,32.0,24.5,85,75,64,30.10,30.04,7,1,7,0.00
2013-2-16,39.7,34.1,28.6,32.4,24.0,18.6,85,67,53,30.06,29.80,6,2,6,0.05
2013-2-17,29.1,23.9,16.2,21.2,7.8,1.3,72,50,38,29.95,29.63,15,4,15,0.00
2013-2-18,33.4,22.5,14.2,12.8,6.7,1.7,58,51,40,30.32,29.94,10,2,11,0.00
2013-2-19,48.9,35.9,23.7,37.5,26.4,11.0,83,68,57,30.32,29.71,9,1,9,0.24
2013-2-20,38.8,30.9,23.2,33.2,18.0,10.2,80,59,48,30.00,29.71,10,3,10,0.00
2013-2-21,31.8,25.8,22.3,16.7,13.2,10.4,64,59,52,30.31,29.99,15,3,15,0.00
2013-2-22,36.1,33.0,22.5,26.1,23.0,11.4,74,66,62,30.51,30.31,2,0,3,0.00
2013-2-23,40.6,36.8,34.5,35.3,30.7,25.7,87,78,68,30.40,29.93,2,0,2,0.08
2013-2-24,42.4,37.3,33.4,38.5,32.5,26.5,88,83,73,30.02,29.81,7,2,7,0.06
2013-2-25,48.4,37.5,29.1,34.3,27.5,22.8,78,68,54,30.38,30.02,6,1,6,0.00
2013-2-26,47.1,37.5,29.8,33.8,28.0,23.5,80,69,55,30.44,30.13,6,1,6,0.05
2013-2-27,43.3,39.2,33.8,42.0,37.4,28.5,96,93,80,30.13,29.65,8,2,8,1.02
2013-2-28,50.0,41.3,35.2,48.9,40.2,34.2,97,96,95,29.71,29.62,2,0,2,0.00
2013-3-1,45.9,39.2,34.5,43.5,37.5,33.0,96,94,86,29.82,29.64,8,2,8,0.00
2013-3-2,41.4,35.2,31.1,39.2,33.2,29.3,94,93,89,29.83,29.75,7,2,7,0.00
2013-3-3,37.2,31.1,27.9,34.8,29.1,25.3,94,92,87,29.78,29.70,8,2,8,0.00
2013-3-4,40.6,31.8,27.1,37.1,28.5,23.7,91,87,80,29.91,29.77,12,4,12,0.00
2013-3-5,49.6,38.3,28.9,37.7,30.9,27.1,93,76,54,30.14,29.90,6,1,6,0.00
2013-3-6,41.5,38.2,35.1,36.1,30.9,28.3,82,75,65,30.11,30.02,10,2,10,0.01
2013-3-7,37.8,33.9,31.8,33.8,30.5,27.8,93,87,76,30.15,30.03,7,2,7,0.04
2013-3-8,38.8,34.0,30.6,37.3,31.9,28.8,95,92,82,30.27,30.03,8,1,8,0.28
2013-3-9,55.0,40.1,28.9,34.7,28.3,24.4,83,65,34,30.47,30.26,5,1,5,0.19
2013-3-10,50.4,38.3,27.3,38.1,29.7,21.4,80,71,61,30.53,30.42,8,1,8,0.00
2013-3-11,56.8,46.6,38.3,45.6,39.0,30.9,83,75,64,30.46,30.24,8,2,8,0.00
2013-3-12,54.3,50.7,41.7,51.0,46.6,36.6,89,86,83,30.24,29.81,12,3,12,1.11
2013-3-13,49.8,41.1,33.3,36.9,30.8,26.8,85,68,47,29.93,29.85,6,1,6,0.00
2013-3-14,39.2,32.8,29.3,27.3,19.5,14.7,73,58,46,29.96,29.89,7,2,7,0.00
2013-3-15,43.5,34.3,25.5,28.3,19.6,12.2,67,55,44,30.00,29.78,5,2,5,0.00
2013-3-16,42.1,36.2,30.2,26.4,22.3,18.5,70,57,43,29.99,29.82,5,1,5,0.00
2013-3-17,37.6,30.4,25.5,26.1,15.9,9.2,70,56,35,30.41,29.99,8,1,12,0.00
2013-3-18,41.5,31.2,22.8,23.9,12.4,6.0,77,46,33,30.54,30.20,7,1,7,0.00
2013-3-19,38.5,32.5,30.2,36.1,28.5,23.9,92,85,77,30.20,29.75,3,1,3,0.21
2013-3-20,42.1,34.7,28.4,31.8,24.4,20.0,91,67,49,29.91,29.82,7,1,7,0.02
2013-3-21,41.2,34.5,30.7,24.4,21.3,12.2,70,59,44,29.91,29.71,2,0,3,0.02
2013-3-22,42.1,33.5,25.5,24.3,18.1,11.8,61,53,46,29.89,29.74,7,1,7,0.00
2013-3-23,44.8,37.7,32.0,25.7,21.5,17.3,64,52,39,29.96,29.85,7,2,7,0.00
2013-3-24,46.6,38.2,30.0,26.2,22.0,17.5,62,52,44,29.99,29.80,7,1,7,0.00
2013-3-25,45.9,40.0,34.5,28.8,25.5,22.4,61,56,49,29.83,29.55,5,1,5,0.00
2013-3-26,48.2,41.6,35.4,31.3,26.2,20.4,66,55,41,29.93,29.64,8,2,8,0.00
2013-3-27,52.7,40.6,28.4,29.9,24.4,19.5,72,54,38,30.05,29.92,8,1,8,0.00
2013-3-28,50.0,44.7,37.0,36.0,31.6,24.3,73,60,50,30.19,30.03,8,2,8,0.00
2013-3-29,55.6,45.4,35.8,34.1,30.1,26.2,69,56,41,30.22,30.14,9,2,9,0.00
2013-3-30,58.3,45.4,32.7,33.5,26.8,22.1,74,50,32,30.24,30.17,8,1,8,0.00
2013-3-31,59.0,44.6,31.3,38.5,27.9,19.7,74,53,38,30.25,29.73,16,2,17,0.20
2013-4-1,62.2,47.8,34.9,46.3,37.5,18.6,81,68,48,29.94,29.65,8,2,12,0.06
2013-4-2,43.0,35.7,30.0,19.4,16.5,12.0,60,46,32,30.11,29.94,8,2,10,0.00
2013-4-3,45.7,36.6,30.2,18.4,14.9,11.2,51,41,31,30.35,30.10,8,2,9,0.00
2013-4-4,56.6,41.1,29.8,28.0,21.0,13.0,60,45,32,30.50,30.19,7,2,12,0.00
2013-4-5,60.1,47.3,39.9,30.6,26.3,19.4,62,46,28,30.18,29.77,7,2,13,0.00
2013-4-6,49.8,39.9,31.8,22.1,14.5,10.1,54,37,23,30.46,30.03,7,2,10,0.00
2013-4-7,58.8,45.8,33.6,39.4,28.9,13.4,73,52,37,30.45,30.12,14,4,20,0.00
2013-4-8,70.2,55.4,41.7,44.0,40.0,35.0,78,59,36,30.17,30.07,5,1,7,0.00
2013-4-9,74.5,63.6,52.3,53.0,45.7,40.2,76,54,37,30.14,30.01,7,2,14,0.00
2013-4-10,70.7,58.9,50.4,54.7,48.1,39.7,83,68,49,30.09,29.95,7,1,10,0.22
2013-4-11,58.6,52.9,45.9,49.1,41.5,28.1,86,66,42,30.22,29.93,2,1,3,0.00
2013-4-12,45.9,40.3,37.4,37.3,34.9,31.9,91,81,58,30.21,29.85,5,1,5,0.31
2013-4-13,55.6,46.8,36.5,38.9,36.0,33.0,90,68,50,30.02,29.85,5,1,5,0.05
2013-4-14,53.6,47.6,42.1,36.8,31.2,25.9,70,54,39,30.34,30.01,8,2,8,0.00
2013-4-15,59.7,48.4,36.3,35.7,31.1,25.4,66,52,37,30.51,30.33,8,2,8,0.00
2013-4-16,64.4,53.1,40.8,51.3,42.9,29.7,82,69,57,30.51,30.23,15,3,15,0.03
2013-4-17,66.7,57.5,49.8,51.9,39.3,32.5,86,54,30,30.43,30.23,8,2,8,0.02
2013-4-18,61.7,53.2,41.4,46.0,37.5,30.7,75,57,37,30.49,30.26,12,3,12,0.00
2013-4-19,70.2,61.1,53.8,61.9,55.9,46.0,92,83,74,30.26,29.78,22,5,22,0.02
2013-4-20,62.8,52.2,41.2,60.1,38.6,25.3,91,63,33,30.38,29.77,10,3,10,0.26
2013-4-21,55.8,44.1,33.1,28.6,22.1,16.0,61,43,28,30.76,30.38,8,2,9,0.00
2013-4-22,59.0,47.6,37.8,35.9,30.0,25.0,70,51,33,30.81,30.64,12,2,12,0.00
2013-4-23,46.4,41.8,37.4,38.6,34.2,28.1,83,74,62,30.64,30.18,8,2,8,0.00
2013-4-24,71.8,55.3,42.4,50.9,44.3,37.5,84,68,45,30.18,29.92,14,3,14,0.00
2013-4-25,54.7,50.9,46.2,49.6,39.9,28.4,84,67,39,30.39,29.96,9,3,9,0.01
2013-4-26,66.6,52.9,39.2,36.5,30.7,26.1,64,45,25,30.52,30.38,7,2,7,0.00
2013-4-27,68.9,55.3,42.1,38.7,33.1,26.6,58,44,31,30.54,30.39,9,2,9,0.00
2013-4-28,69.1,57.7,46.0,44.4,36.6,30.8,70,47,30,30.44,30.32,12,2,12,0.00
2013-4-29,61.3,56.7,52.2,45.1,40.5,33.2,69,55,42,30.39,30.34,9,2,9,0.00
2013-4-30,69.1,58.2,48.7,40.8,34.5,27.1,68,44,22,30.47,30.35,9,2,9,0.00
2013-5-1,70.9,56.8,42.6,46.0,36.1,28.2,59,47,33,30.61,30.45,10,2,10,0.00
2013-5-2,77.4,60.9,46.2,45.6,41.2,36.4,73,51,29,30.59,30.40,9,2,9,0.00
2013-5-3,71.4,57.9,48.6,45.0,38.6,33.6,67,49,33,30.60,30.46,7,2,7,0.00
2013-5-4,73.4,57.1,43.9,48.1,41.2,34.8,80,57,37,30.50,30.34,8,2,8,0.00
2013-5-5,70.2,50.5,38.1,46.3,37.4,31.2,80,63,39,30.44,30.33,8,2,8,0.00
2013-5-6,73.8,62.8,45.7,53.1,48.2,39.2,81,60,47,30.41,30.26,10,2,10,0.00
2013-5-7,77.4,58.0,47.1,57.1,47.2,40.6,83,69,44,30.31,30.22,8,1,8,0.00
2013-5-8,63.0,60.9,58.8,57.9,56.3,54.3,85,85,83,30.16,30.12,4,0,4,0.21
2013-5-9,68.4,60.3,54.7,60.5,55.6,51.1,89,85,74,30.14,29.99,4,0,4,0.17
2013-5-10,81.7,66.1,52.3,63.1,55.9,49.7,93,72,47,30.12,30.00,8,1,8,0.00
2013-5-11,67.6,63.4,60.6,61.9,58.0,53.3,88,83,70,30.00,29.81,10,2,10,0.26
2013-5-12,70.3,61.3,50.0,57.9,47.2,28.2,90,64,28,30.00,29.73,9,2,9,0.04
2013-5-13,59.4,49.6,42.3,34.0,30.7,28.1,61,49,33,30.20,30.00,10,2,10,0.00
2013-5-14,62.2,49.6,36.7,35.3,30.4,27.7,72,50,30,30.21,30.13,7,1,7,0.00
2013-5-15,67.8,52.1,36.1,53.4,40.6,28.2,78,65,48,30.21,29.83,9,1,9,0.00
2013-5-16,83.7,65.4,47.3,54.6,46.0,40.9,88,56,23,29.90,29.75,7,1,7,0.00
2013-5-17,72.1,61.8,52.0,48.6,41.4,37.7,67,49,32,30.32,29.89,5,1,5,0.00
2013-5-18,77.7,61.2,45.9,51.9,44.8,37.3,72,56,37,30.44,30.32,10,2,10,0.00
2013-5-19,62.6,57.6,51.8,54.9,51.2,44.1,86,79,72,30.49,30.32,5,0,5,0.04
2013-5-20,85.8,69.6,57.2,68.5,61.0,53.0,89,76,54,30.32,30.03,8,1,8,0.01
2013-5-21,93.9,76.5,62.6,73.5,65.8,58.7,88,71,50,30.08,29.95,10,2,10,0.00
2013-5-22,86.0,69.4,56.8,71.4,61.6,52.4,90,77,60,30.11,29.93,8,2,8,0.16
2013-5-23,75.6,68.1,64.2,69.3,63.9,61.7,93,87,78,30.01,29.88,10,2,10,1.15
2013-5-24,68.9,58.5,45.5,65.8,54.9,42.6,94,88,74,30.01,29.75,8,2,8,0.27
2013-5-25,48.2,45.3,43.7,45.1,42.2,39.8,92,89,85,30.01,29.93,9,2,9,0.31
2013-5-26,62.4,50.9,43.9,43.5,40.4,38.2,86,68,44,30.27,29.96,9,3,9,0.00
2013-5-27,75.9,58.0,39.2,48.4,42.4,34.8,89,60,33,30.31,30.19,8,1,8,0.00
2013-5-28,79.0,60.8,46.4,54.5,48.6,39.8,83,66,38,30.36,30.25,0,0,0,0.04
2013-5-29,85.5,70.1,58.1,71.3,61.9,53.6,87,76,61,30.26,30.07,0,0,0,0.03
2013-5-30,94.8,78.9,63.3,71.9,66.1,59.4,90,68,43,30.26,30.12,0,0,0,0.00
2013-5-31,96.4,80.9,66.2,72.7,66.0,61.0,87,63,36,30.22,30.07,0,0,0,0.00
2013-6-1,92.8,79.3,64.6,72.1,66.3,59.0,86,66,50,30.11,29.98,9,2,10,0.00
2013-6-2,90.7,76.7,67.5,72.0,65.9,59.1,83,70,53,30.00,29.85,12,3,12,0.00
2013-6-3,73.2,66.7,59.0,64.7,59.9,46.3,91,79,62,29.96,29.85,5,1,5,0.41
2013-6-4,69.8,59.9,50.0,46.6,41.7,36.7,65,52,35,30.22,29.96,7,2,7,0.00
2013-6-5,71.8,60.2,47.1,50.7,44.4,39.1,78,58,41,30.34,30.21,7,1,7,0.00
2013-6-6,70.5,59.4,48.2,56.2,48.9,41.3,87,69,53,30.32,30.17,6,1,6,0.07
2013-6-7,57.0,54.4,51.4,55.0,51.9,49.4,94,91,87,30.18,29.82,5,1,5,1.16
2013-6-8,71.8,61.1,49.1,61.4,55.0,47.2,94,81,67,30.14,29.74,6,2,6,0.11
2013-6-9,76.8,64.6,53.2,61.1,54.6,49.8,92,73,47,30.28,30.14,7,1,7,0.00
2013-6-10,75.4,62.5,55.8,61.0,56.7,52.2,93,82,50,30.30,29.99,5,1,5,0.46
2013-6-11,71.6,60.9,55.8,66.5,58.1,53.8,95,91,76,30.00,29.64,9,1,9,0.33
2013-6-12,69.8,64.5,55.5,62.8,50.2,47.6,86,60,49,29.95,29.66,8,2,8,0.34
2013-6-13,55.4,52.6,48.9,52.4,49.0,45.0,93,88,75,29.96,29.71,4,0,4,0.82
2013-6-14,66.7,54.8,47.5,56.3,49.8,45.3,94,84,64,29.97,29.71,6,1,6,0.57
2013-6-15,73.4,60.0,48.2,59.9,50.2,46.0,94,74,41,30.10,29.97,7,1,7,0.00
2013-6-16,73.9,67.4,50.5,61.4,56.2,46.5,86,68,44,30.09,29.83,8,2,8,0.00
2013-6-17,81.7,70.2,56.7,64.8,57.9,52.4,91,67,45,30.01,29.91,7,2,7,0.00
2013-6-18,81.3,65.4,56.8,66.3,57.8,51.7,89,77,57,30.02,29.88,6,1,6,0.15
2013-6-19,71.8,61.9,50.4,54.0,47.6,41.1,90,63,34,30.28,29.99,6,1,6,0.44
2013-6-20,77.0,63.4,47.1,57.0,49.6,41.3,84,63,42,30.41,30.28,8,1,8,0.00
2013-6-21,81.0,68.8,54.0,63.3,55.4,47.9,82,64,49,30.42,30.30,9,2,9,0.00
2013-6-22,75.0,67.2,64.2,56.7,54.2,53.0,67,63,53,30.39,30.25,4,1,4,0.00
2013-6-23,86.9,73.7,59.4,68.3,61.1,51.8,81,66,45,30.29,30.14,10,2,10,0.00
2013-6-24,90.0,76.1,66.6,70.2,65.3,61.0,86,71,47,30.17,30.03,8,1,8,0.08
2013-6-25,87.4,74.8,63.1,72.7,65.4,59.5,90,74,51,30.08,29.87,8,1,8,0.00
2013-6-26,81.0,73.9,68.4,68.6,65.8,63.7,86,76,65,29.95,29.83,8,1,8,0.00
2013-6-27,80.4,70.9,64.2,70.2,65.0,60.4,90,82,69,29.91,29.67,6,1,6,0.31
2013-6-28,77.7,71.6,66.0,70.2,66.8,63.0,93,85,73,29.68,29.53,8,3,9,0.37
2013-6-29,79.7,71.9,64.6,69.1,65.3,61.9,92,80,63,29.77,29.54,8,2,8,0.00
2013-6-30,82.8,73.7,68.5,71.7,67.4,64.7,89,81,67,30.02,29.77,7,2,7,0.00
2013-7-1,72.7,70.6,68.9,69.0,67.3,65.7,91,89,87,30.14,30.01,7,2,7,0.31
2013-7-2,79.2,72.5,68.7,71.4,68.3,66.2,94,87,75,30.30,30.14,7,2,7,0.00
2013-7-3,83.3,75.2,68.0,72.4,68.2,64.6,89,80,65,30.43,30.24,8,2,8,0.01
2013-7-4,86.7,79.0,71.2,73.3,69.9,66.8,89,75,58,30.40,30.27,9,3,9,0.00
2013-7-5,88.9,80.0,70.3,74.1,69.1,65.4,87,71,53,30.40,30.20,12,2,12,0.00
2013-7-6,88.5,80.4,72.7,73.4,69.0,66.8,83,69,51,30.31,30.17,7,1,8,0.00
2013-7-7,91.8,81.4,70.9,75.8,70.1,65.8,87,70,50,30.20,30.01,7,1,7,0.00
2013-7-8,87.4,79.1,70.2,70.3,66.0,61.9,78,65,50,30.19,30.01,7,2,7,0.00
2013-7-9,83.8,73.2,67.3,71.3,66.0,61.4,89,79,59,30.22,30.09,5,0,5,0.33
2013-7-10,82.2,74.9,68.7,73.7,69.4,65.0,92,83,72,30.12,29.88,9,1,9,0.04
2013-7-11,79.9,72.7,67.5,70.4,66.3,59.8,92,81,62,30.05,29.86,4,0,4,0.11
2013-7-12,77.9,69.6,64.4,63.7,59.2,54.4,82,70,61,30.25,29.99,4,1,4,0.00
2013-7-13,64.4,62.4,62.4,56.7,56.5,55.6,81,81,77,30.26,30.24,0,0,0,0.00
2013-7-14,86.7,81.1,62.4,72.5,70.6,56.5,92,71,58,30.43,30.26,6,1,6,0.00
2013-7-15,88.3,79.8,70.7,73.3,68.4,65.5,88,70,48,30.39,30.24,5,1,5,0.00
2013-7-16,92.3,82.1,68.2,72.2,67.1,61.9,82,63,42,30.30,30.22,2,1,2,0.00
2013-7-17,94.1,83.8,71.1,74.5,69.6,65.1,83,64,46,30.32,30.18,6,1,6,0.00
2013-7-18,95.2,86.1,74.8,75.9,71.5,67.2,81,63,47,30.19,30.04,6,1,6,0.00
2013-7-19,96.4,87.4,76.3,76.4,73.5,70.4,83,65,48,30.06,29.86,9,3,9,0.00
2013-7-20,93.2,84.4,75.7,75.6,72.0,64.8,77,67,51,29.94,29.80,10,2,10,0.01
2013-7-21,87.3,78.2,71.1,66.8,63.4,60.4,76,61,46,30.08,29.92,6,1,6,0.00
2013-7-22,84.4,75.2,67.1,72.9,67.5,61.2,87,77,68,30.08,29.91,5,1,5,0.00
2013-7-23,85.8,76.1,72.1,74.7,71.3,69.0,94,85,66,29.91,29.62,10,1,10,0.00
2013-7-24,79.5,73.9,64.4,71.2,65.0,53.4,91,75,57,30.02,29.66,6,1,6,0.00
2013-7-25,64.9,61.0,57.6,56.5,52.6,46.9,86,74,67,30.22,30.00,4,1,4,0.00
2013-7-26,75.2,65.7,59.9,67.6,60.8,55.7,91,84,67,30.15,30.06,4,1,4,0.00
2013-7-27,82.9,70.3,62.4,69.1,62.6,58.5,91,78,53,30.15,30.05,7,1,7,0.00
2013-7-28,81.9,72.5,64.6,69.6,64.7,60.0,91,77,63,30.12,30.02,6,1,6,0.00
2013-7-29,84.9,75.8,66.6,71.1,64.8,55.2,89,70,46,30.20,30.03,6,1,6,0.00
2013-7-30,79.7,70.0,58.6,60.8,56.6,53.0,83,64,46,30.24,30.15,6,1,6,0.00
2013-7-31,81.5,71.3,58.8,62.9,58.3,53.8,85,65,45,30.26,30.11,5,1,5,0.00
2013-8-1,76.8,67.5,61.9,66.8,61.6,56.5,90,82,67,30.15,29.91,6,1,6,0.00
2013-8-2,80.2,72.3,63.9,67.7,62.9,58.8,94,74,49,30.01,29.85,8,2,8,0.00
2013-8-3,71.6,66.5,63.3,65.8,60.9,58.6,88,82,74,29.98,29.88,6,1,6,0.00
2013-8-4,78.1,66.4,57.0,63.5,57.4,52.2,93,74,48,30.02,29.88,7,1,7,0.00
2013-8-5,75.0,64.8,56.1,54.1,50.4,45.3,83,62,39,30.14,30.00,7,1,7,0.00
2013-8-6,79.2,66.5,52.0,60.3,54.5,47.0,87,67,45,30.23,30.12,8,1,8,0.00
2013-8-7,78.3,68.4,56.8,63.6,58.8,52.1,86,72,52,30.27,30.17,8,1,8,0.00
2013-8-8,80.1,73.0,68.9,71.5,67.4,63.2,89,83,73,30.24,30.11,9,2,10,0.00
2013-8-9,77.2,73.6,72.1,74.3,70.7,67.7,95,91,86,30.15,29.84,7,2,7,0.00
2013-8-10,81.0,72.5,63.1,69.9,63.5,56.2,94,75,53,30.14,29.90,6,1,6,0.00
2013-8-11,78.4,67.2,54.1,61.5,56.0,49.7,90,69,48,30.26,30.09,6,1,6,0.00
2013-8-12,81.9,70.6,60.8,63.9,59.7,56.1,87,70,48,30.18,29.99,5,1,5,0.00
2013-8-13,75.7,69.7,64.6,67.7,64.0,58.9,90,82,71,30.05,29.73,5,1,5,0.00
2013-8-14,72.9,64.3,55.6,61.5,53.6,50.0,89,70,50,30.11,29.77,8,2,8,0.00
2013-8-15,75.6,64.4,51.4,58.4,51.7,46.8,89,66,42,30.23,30.11,5,1,5,0.00
2013-8-16,78.3,66.4,52.7,61.8,53.7,47.7,85,66,45,30.30,30.22,6,1,6,0.00
2013-8-17,79.2,67.1,54.9,62.4,55.5,49.5,87,68,44,30.39,30.30,6,0,6,0.00
2013-8-18,78.6,68.6,59.9,64.6,59.2,55.1,85,73,53,30.38,30.21,4,0,4,0.00
2013-8-19,80.2,70.3,59.2,66.8,60.4,54.8,88,72,53,30.22,30.07,5,1,5,0.00
2013-8-20,83.7,72.8,60.6,67.2,60.8,56.3,90,68,46,30.25,30.09,5,1,5,0.00
2013-8-21,85.8,74.4,61.0,70.0,61.8,56.1,88,67,46,30.28,30.13,7,1,7,0.00
2013-8-22,79.0,75.2,67.8,71.2,68.7,63.1,86,80,74,30.10,29.92,8,2,8,0.00
2013-8-23,79.5,71.6,62.8,67.0,59.5,54.4,87,67,43,30.19,29.91,5,1,5,0.00
2013-8-24,76.3,65.2,53.4,55.5,51.3,47.2,83,63,41,30.44,30.19,6,1,6,0.00
2013-8-25,59.5,54.6,51.6,51.2,48.6,46.5,83,80,74,30.50,30.43,0,0,0,0.00
2013-8-26,74.3,70.4,51.8,65.3,62.7,47.1,88,77,69,30.50,29.96,5,1,5,0.00
2013-8-27,81.9,73.1,67.5,71.2,67.3,64.6,93,83,66,29.97,29.86,5,1,5,0.00
2013-8-28,86.4,72.3,64.2,73.0,65.8,60.9,92,81,60,30.04,29.92,9,1,9,0.00
2013-8-29,75.0,68.9,64.9,66.5,64.0,60.0,94,85,71,30.12,29.99,4,1,4,0.00
2013-8-30,81.1,71.1,64.0,69.2,64.4,59.8,90,80,63,30.10,29.85,6,1,6,0.00
2013-8-31,81.9,74.8,70.3,74.2,69.6,66.0,89,84,75,29.88,29.77,6,2,6,0.00
2013-9-1,81.1,75.9,71.8,74.2,71.1,68.4,92,85,77,29.88,29.79,6,1,6,0.00
2013-9-2,78.4,74.2,68.7,73.0,70.3,65.7,91,88,80,29.82,28.57,3,0,5,0.00
2013-9-3,68.7,66.3,62.8,65.8,63.6,56.9,93,91,78,29.50,28.63,1,0,1,0.00
2013-9-4,77.9,67.3,57.0,62.0,57.2,53.5,90,72,48,29.10,29.10,10,1,10,0.00
2013-9-5,72.5,66.3,53.8,61.2,49.7,43.5,87,57,37,29.10,29.10,7,1,7,0.00
2013-9-6,68.2,57.3,46.4,46.8,43.8,40.6,82,63,39,29.10,29.10,7,1,7,0.00
2013-9-7,75.7,56.6,46.0,55.2,46.9,40.7,86,72,42,29.10,29.10,5,0,5,0.00
2013-9-8,75.6,66.3,54.7,62.8,53.0,44.3,78,64,40,29.10,29.10,0,0,0,0.00
2013-9-9,70.7,58.7,45.5,50.7,46.2,39.5,83,65,46,29.10,29.10,0,0,0,0.00
2013-9-10,78.1,68.5,59.5,70.9,63.1,50.3,90,83,71,29.10,29.10,0,0,0,0.00
2013-9-11,91.9,78.6,67.5,78.6,70.8,64.4,93,78,59,29.10,29.10,0,0,0,0.00
2013-9-12,85.8,75.6,69.3,74.4,68.8,65.1,89,80,64,29.10,29.10,0,0,0,0.00
2013-9-13,72.9,67.1,57.0,65.8,60.7,49.5,92,80,63,33.96,29.10,0,0,0,0.00
2013-9-14,64.6,57.3,51.1,51.0,48.1,45.3,82,72,58,29.10,29.10,0,0,0,0.00
2013-9-15,68.9,56.8,44.1,50.9,45.9,39.8,89,69,45,29.10,29.10,0,0,0,0.00
2013-9-16,67.1,58.5,51.1,55.3,50.3,40.1,88,75,56,29.10,29.10,0,0,0,0.00
2013-9-17,61.0,49.0,42.3,41.3,36.9,33.9,76,64,40,29.10,29.10,0,0,0,0.00
2013-9-18,70.2,54.4,39.9,51.1,42.6,34.9,87,67,42,29.10,29.10,0,0,0,0.00
2013-9-19,73.9,58.8,43.5,56.3,47.4,38.3,88,68,46,29.10,29.10,0,0,0,0.00
2013-9-20,77.2,61.2,46.2,60.0,50.7,41.3,89,70,45,29.10,29.10,0,0,0,0.00
2013-9-21,71.8,63.9,53.8,65.3,58.1,49.4,90,81,74,29.10,29.10,0,0,0,0.00
2013-9-22,68.7,61.1,50.4,64.6,53.1,41.3,92,76,55,29.10,29.10,0,0,0,0.00
2013-9-23,60.1,51.7,43.3,43.6,41.5,38.2,83,69,53,29.10,29.10,0,0,0,0.00
2013-9-24,67.7,53.7,41.4,44.7,40.7,36.6,84,64,37,29.10,29.10,0,0,0,0.00
2013-9-25,69.6,56.0,43.2,52.2,45.6,38.3,87,70,50,29.10,29.10,0,0,0,0.00
2013-9-26,66.3,58.8,52.5,52.1,49.7,45.9,84,72,56,29.10,29.10,0,0,0,0.00
2013-9-27,62.1,55.2,46.8,51.5,47.8,42.4,88,77,65,29.10,29.10,0,0,0,0.00
2013-9-28,71.1,57.6,45.4,56.9,48.8,41.3,92,74,53,29.10,29.10,0,0,0,0.00
2013-9-29,68.4,57.8,48.1,57.9,48.8,43.6,87,73,51,29.10,29.10,0,0,0,0.00
2013-9-30,71.4,57.3,44.2,55.6,48.0,40.0,89,72,52,29.10,29.10,0,0,0,0.00
2013-10-1,76.3,60.7,46.2,59.6,50.9,41.7,90,72,49,29.10,29.10,0,0,0,0.00
2013-10-2,78.3,64.6,50.9,61.8,55.4,46.6,90,74,54,29.10,29.10,0,0,0,0.00
2013-10-3,74.8,62.3,49.5,56.8,51.6,45.4,89,70,44,29.10,29.10,0,0,0,0.00
2013-10-4,77.1,63.2,54.7,66.2,55.8,49.3,85,77,64,29.10,29.10,0,0,0,0.00
2013-10-5,75.0,65.8,60.3,64.1,59.1,55.1,85,79,68,29.10,29.10,0,0,0,0.00
2013-10-6,65.3,60.2,57.2,60.7,57.4,54.6,94,91,84,29.10,29.10,0,0,0,0.00
2013-10-7,72.5,64.0,57.0,68.6,61.3,53.3,96,91,84,29.10,29.10,0,0,0,0.00
2013-10-8,62.6,54.4,47.7,53.5,45.1,40.9,91,73,47,29.10,29.10,0,0,0,0.00
2013-10-9,61.3,52.3,42.3,46.0,42.7,38.1,87,71,53,29.10,29.10,0,0,0,0.00
2013-10-10,57.6,52.4,46.9,50.2,46.2,40.9,85,79,75,29.10,29.10,0,0,0,0.00
2013-10-11,68.2,59.0,51.6,57.4,51.4,46.9,85,76,67,29.10,29.10,0,0,0,0.00
2013-10-12,67.5,57.0,49.1,54.9,49.1,43.5,83,75,62,29.10,29.10,0,0,0,0.00
2013-10-13,62.2,54.4,47.8,50.7,46.9,42.6,85,76,64,29.10,29.10,0,0,0,0.00
2013-10-14,64.8,51.9,41.9,50.2,44.4,38.2,89,76,53,29.10,29.10,0,0,0,0.00
2013-10-15,69.6,57.8,48.9,54.7,47.5,41.0,88,70,50,29.10,29.10,0,0,0,0.00
2013-10-16,62.8,54.6,46.9,52.5,46.7,41.0,84,75,65,29.10,29.10,0,0,0,0.00
2013-10-17,72.0,63.1,57.0,60.5,57.2,51.2,90,82,67,29.10,29.10,0,0,0,0.00
2013-10-18,64.9,59.8,49.5,59.1,48.2,39.3,90,67,47,29.10,29.10,0,0,0,0.00
2013-10-19,61.9,51.6,39.9,47.8,41.6,34.9,86,70,49,29.10,29.10,0,0,0,0.00
2013-10-20,59.4,53.0,45.1,50.3,40.1,34.8,84,64,42,29.10,29.10,0,0,0,0.00
2013-10-21,63.7,49.9,36.5,46.7,37.5,30.9,85,64,44,29.10,29.10,0,0,0,0.00
2013-10-22,63.5,52.8,42.6,50.2,43.7,37.4,87,72,54,29.10,29.10,0,0,0,0.00
2013-10-23,50.5,43.9,36.1,37.7,33.7,30.9,83,68,51,29.10,29.10,0,0,0,0.00
2013-10-24,52.0,43.4,35.8,34.7,29.6,26.0,80,60,39,29.10,29.10,0,0,0,0.00
2013-10-25,48.0,40.4,32.5,30.6,27.2,24.4,76,60,47,29.10,29.10,0,0,0,0.00
2013-10-26,51.8,40.7,28.4,33.7,27.6,22.7,83,62,41,29.10,29.10,0,0,0,0.00
2013-10-27,55.4,47.1,38.1,34.9,31.1,26.6,69,54,39,29.10,29.10,0,0,0,0.00
2013-10-28,57.2,43.0,29.8,35.7,29.5,23.3,81,60,41,29.10,29.10,0,0,0,0.00
2013-10-29,51.4,40.8,36.7,29.0,25.6,22.3,63,55,41,29.10,29.10,0,0,0,0.00
2013-10-30,52.7,43.8,35.4,42.4,33.9,24.7,79,68,62,29.10,29.10,0,0,0,0.00
2013-10-31,41.9,38.3,36.7,37.7,33.3,31.6,87,82,79,29.10,29.10,0,0,0,0.00
2013-11-8,37.9,36.2,34.3,27.6,26.8,25.9,71,68,66,29.10,29.10,0,0,0,0.00
2013-11-9,45.3,38.6,28.8,32.1,28.5,23.7,83,68,53,29.10,29.10,0,0,0,0.00
2013-11-10,56.8,46.2,43.0,39.5,35.2,31.5,73,66,48,29.10,29.10,0,0,0,0.00
2013-11-11,49.3,44.8,36.3,32.3,29.8,26.4,68,56,43,29.10,29.10,0,0,0,0.00
2013-11-12,48.6,34.9,27.9,35.3,22.7,16.6,80,61,52,29.10,29.10,0,0,0,0.00
2013-11-13,35.6,29.5,23.9,17.0,14.5,12.6,65,54,40,29.10,29.10,0,0,0,0.00
2013-11-14,50.0,38.1,27.5,22.6,19.7,15.4,64,49,32,29.10,29.10,0,0,0,0.00
2013-11-24,24.6,21.9,20.3,10.2,3.9,-0.5,64,46,35,29.91,29.91,0,0,0,0.00
2013-11-25,32.4,25.1,16.2,15.0,10.6,5.1,65,54,43,29.91,29.91,0,0,0,0.00
2013-11-26,55.4,34.0,30.0,99.9,22.1,13.6,90,58,48,29.91,29.91,0,0,0,0.00
2013-11-27,59.7,44.9,32.0,99.9,45.0,29.3,95,86,79,33.96,29.91,0,0,0,0.00
2013-11-28,34.2,28.4,23.7,29.5,17.8,12.8,83,65,48,30.20,29.91,10,1,10,0.00
2013-11-29,34.0,27.6,22.3,21.2,17.4,13.0,76,65,54,30.47,30.19,8,1,8,0.00
2013-11-30,31.1,24.6,16.5,19.7,13.8,9.8,77,64,51,30.51,30.13,6,1,6,0.00
2013-12-1,44.1,35.8,29.7,37.1,28.7,19.7,82,75,66,30.13,29.76,5,1,5,0.00
2013-12-2,41.2,34.4,29.3,35.6,30.4,25.6,89,85,80,29.76,29.66,3,0,3,0.00
2013-12-3,47.8,35.3,27.5,38.6,30.1,24.4,91,81,64,29.75,29.61,5,0,5,0.00
2013-12-4,47.7,36.2,27.1,38.7,30.4,23.4,89,80,70,29.92,29.75,4,0,4,0.00
2013-12-5,52.2,44.0,37.9,50.5,40.9,32.3,94,89,78,29.92,29.69,4,1,4,0.00
2013-12-6,52.3,43.8,34.9,50.7,40.4,31.8,94,88,77,29.89,29.63,11,2,11,0.00
2013-12-7,36.7,32.7,27.5,31.8,26.4,17.8,91,78,65,30.24,29.81,10,3,10,0.00
2013-12-8,29.8,26.7,21.0,21.2,18.9,15.7,82,72,66,30.33,30.16,5,1,5,0.00
2013-12-9,34.0,30.2,25.7,31.9,27.6,20.4,92,90,75,30.17,29.68,7,1,7,0.00
2013-12-10,31.3,30.5,29.8,29.2,28.4,27.5,92,92,91,29.73,29.63,2,0,2,0.00
2013-12-12,120.7,17.4,15.8,29.4,15.2,-5.1,99,91,79,29.95,29.84,2,1,2,0.00
2013-12-13,126.5,25.5,15.6,99.9,15.2,-63.0,99,72,1,30.09,29.79,14,2,14,0.00
2013-12-14,22.3,17.7,14.4,16.2,11.6,9.5,87,77,64,30.28,29.68,7,2,7,0.00
2013-12-15,34.7,29.1,19.4,30.4,25.1,16.2,91,85,79,29.68,29.21,9,2,9,0.00
2013-12-16,28.8,23.6,11.8,21.4,13.3,4.2,82,65,52,29.97,29.52,7,1,7,0.00
2013-12-17,18.1,13.1,5.7,13.7,8.1,-0.2,85,80,72,29.99,29.72,6,1,6,0.00
2013-12-18,33.8,28.8,20.8,24.2,21.7,16.8,85,75,66,29.86,29.69,6,1,6,0.00
2013-12-19,43.0,32.7,24.8,29.5,24.2,18.6,79,71,56,29.88,29.71,6,1,6,0.00
2013-12-20,47.5,38.7,29.8,38.4,31.7,25.3,86,76,68,29.85,29.70,5,1,5,0.00
2013-12-21,53.6,44.2,35.1,47.6,39.4,30.7,90,83,75,29.74,29.64,8,1,8,0.00
2013-12-22,61.5,54.2,45.1,59.6,52.3,42.4,96,93,88,29.70,29.55,8,2,8,0.00
2013-12-23,56.3,50.6,36.3,54.0,48.0,30.6,95,91,81,29.90,29.65,9,2,9,0.00
2013-12-24,36.3,31.6,24.4,31.0,21.7,13.9,81,67,52,30.02,29.81,12,4,12,0.00
2013-12-25,25.7,21.5,16.0,15.2,9.0,5.4,68,58,48,30.25,30.02,10,2,10,0.00
2013-12-26,32.2,26.4,21.9,26.1,19.3,12.1,82,74,63,30.17,29.87,5,1,5,0.00
2013-12-27,36.7,27.1,17.2,24.7,19.8,13.2,89,75,56,30.06,29.97,5,1,5,0.00
2013-12-28,46.9,33.5,22.8,30.5,24.4,17.9,85,70,49,29.99,29.78,7,1,7,0.00
2013-12-29,40.3,35.5,29.3,38.4,31.6,23.3,93,86,77,29.78,29.16,7,1,7,0.00
2013-12-30,37.9,30.3,16.5,35.3,24.3,8.3,93,79,63,29.93,29.35,9,2,9,0.00
2013-12-31,27.9,21.5,14.7,20.3,13.2,7.9,78,70,60,29.95,29.76,5,1,5,0.00
2014-1-1,29.3,24.0,18.0,18.7,13.6,10.1,76,64,53,30.11,29.95,6,1,6,0.00
2014-1-2,24.8,18.0,9.0,18.0,13.3,4.2,84,82,75,30.03,29.46,15,3,15,0.00